Main page
METAR-TAF:

METAR-TAF

Airports :

Chita, Russia

Kadala Airport

latitude: 52-05N, longitude: 113-29E, elevation: 685 m

Current weather observation

The report was made 34 minutes ago, at 14:30 UTC
Wind 2 kt from the West
Temperature -7°C
Humidity 48%
Pressure 1027 hPa
Visibility 10 km or more

METAR: UIAA 291430Z 27001MPS 9999 NSC M07/M16 Q1027 R29/70D NOSIG RMK QFE711

Time: 00:04 (15:04 UTC)

Forecast

The report was made 1 hour and 4 minutes ago, at 14:00 UTC
Forecast valid from 29 at 15 UTC to 30 at 15 UTC
Wind 6 kt from the West
Visibility 10 km or more
Temporary
from 29 at 18 UTC to 30 at 02 UTC
Visibility: 3000 m
smoke, mist

TAF: UIAA 291400Z 2915/3015 27003MPS 9999 NSC TEMPO 2918/3002 3000 FU BR

Weather observations and forecasts of more than 4000 airports (METAR and TAF reports).

The available stations are represented by yellow and red dots on the map.

Hover mouse over dot to see the name of the station.

Then click to see weather observations and forecasts.

To change the map : click on the green buttons with a black cross to zoom in, on the green button with a dash to zoom out, or on the green arrows for adjacent maps.


METAR-TAF: